Bookmark and Share
Track history (hours):
 

Baani

Last reported at 2012-Aug-31 07:27 UTC. Time now 2014-Apr-23 13:13 UTC.
Position N 39°47' E 026°02'.
Warning: this ship's position is years out of date!

Length 190 m; draft 7.8 m.

Type: Ship. MMSI: 214181721.

NotesDate/timePositionNaut miles runAvg speedWind from/ knotsBaromVisibWave heightAir tempDewpointWater temp
2012-Aug-31 07:27N 39°47' E 026°02'1 0.5
2012-Aug-31 05:24N 39°46' E 026°01'5 6.3
2012-Aug-31 04:36N 39°43' E 025°56'1311.2
2012-Aug-31 03:28N 39°35' E 025°43'3 3.2
2012-Aug-31 02:33N 39°36' E 025°39'2 2.2
2012-Aug-31 01:33N 39°38' E 025°38'2 2.0
2012-Aug-31 00:33N 39°39' E 025°37'2 1.6
2012-Aug-30 23:33N 39°41' E 025°36'2 1.6
2012-Aug-30 22:33N 39°42' E 025°34'3 1.3
2012-Aug-30 20:28N 39°44' E 025°33'2 2.2
2012-Aug-30 19:32N 39°43' E 025°31'2 2.1
2012-Aug-30 18:24N 39°45' E 025°32'3 3.5
2012-Aug-30 17:34N 39°48' E 025°30'2 1.9
2012-Aug-30 16:26N 39°48' E 025°32'8 9.5
2012-Aug-30 15:33N 39°41' E 025°38'2 1.9
2012-Aug-30 14:33N 39°43' E 025°37'2 1.7
2012-Aug-30 13:33N 39°44' E 025°37'3 3.4
2012-Aug-30 12:33N 39°44' E 025°41'2 1.8
2012-Aug-30 11:30N 39°43' E 025°39'9 9.5
2012-Aug-30 10:35N 39°34' E 025°41'1412.1
2012-Aug-30 09:28N 39°20' E 025°42'2412.4
2012-Aug-30 07:33N 38°57' E 025°43'1312.4
2012-Aug-30 06:33N 38°44' E 025°42'1412.5
2012-Aug-30 05:26N 38°30' E 025°42'1012.6
2012-Aug-30 04:36N 38°20' E 025°42'1312.5
2012-Aug-30 03:33N 38°07' E 025°42'1312.7
2012-Aug-30 02:33N 37°54' E 025°45'1412.9
2012-Aug-30 01:29N 37°41' E 025°50'1212.5
2012-Aug-30 00:33N 37°30' E 025°55'1313.0
2012-Aug-29 23:33N 37°21' E 026°06'1313.0
2012-Aug-29 22:33N 37°12' E 026°19'1212.4
2012-Aug-29 21:33N 37°05' E 026°32'1211.7
2012-Aug-29 20:34N 36°56' E 026°41'1212.0
2012-Aug-29 19:34N 36°44' E 026°43'1211.7
2012-Aug-29 18:34N 36°32' E 026°44'1211.6
2012-Aug-29 17:34N 36°24' E 026°54'1211.7
2012-Aug-29 16:33N 36°16' E 027°05'1211.7
2012-Aug-29 15:33N 36°09' E 027°17'  

Dump ship's entire track history

sailing weather and tide predictions

Baani — ERQU — position and weather